Time;durP1;ratioP1;P1;durP2;ratioP2;P2;SDS_P1;SDS_P2;PMS_P1;PMS_P2;Temp;Humidity;BMP_temperature;BMP_pressure;BME280_temperature;BME280_humidity;BME280_pressure;Samples;Min_cycle;Max_cycle;Signal;HPM_P1;HPM_P2
2020/12/28 00:06:05;;;;;;;8.1;7.4;;;;;;;4.2;82.1;97470.0;;;;
2020/12/28 00:07:09;;;;;;;8.1;7.4;;;;;;;4.2;82.3;97470.0;;;;
2020/12/28 00:07:18;;;;;;;8.1;7.4;;;;;;;4.3;82.3;97470.0;;;;
2020/12/28 00:13:13;;;;;;;8.1;7.4;;;;;;;4.3;81.1;97480.0;;;;
2020/12/28 00:13:57;;;;;;;8.1;7.4;;;;;;;4.3;81.7;97480.0;;;;
2020/12/28 00:23:49;;;;;;;6.6;6.1;;;;;;;4.3;81.7;97490.0;;;;
2020/12/28 00:24:44;;;;;;;6.6;6.1;;;;;;;4.3;81.8;97490.0;;;;
2020/12/28 00:27:50;;;;;;;6.6;6.1;;;;;;;4.3;81.9;97480.0;;;;
2020/12/28 00:36:54;;;;;;;6.6;6.1;;;;;;;4.3;81.7;97470.0;;;;
2020/12/28 00:56:50;;;;;;;5.6;5.2;;;;;;;4.3;81.7;97480.0;;;;
2020/12/28 01:09:09;;;;;;;5.6;5.2;;;;;;;4.1;81.9;97460.0;;;;
2020/12/28 01:16:43;;;;;;;5.6;5.2;;;;;;;4.2;81.6;97470.0;;;;
2020/12/28 01:17:18;;;;;;;5.6;5.2;;;;;;;4.1;82.0;97470.0;;;;
2020/12/28 01:30:12;;;;;;;5.3;4.9;;;;;;;4.2;82.1;97490.0;;;;
2020/12/28 01:33:44;;;;;;;5.3;4.9;;;;;;;4.1;82.3;97500.0;;;;
2020/12/28 01:34:21;;;;;;;5.3;4.9;;;;;;;4.2;82.3;97500.0;;;;
2020/12/28 01:34:40;;;;;;;5.3;4.9;;;;;;;4.2;82.1;97500.0;;;;
2020/12/28 01:39:58;;;;;;;5.3;4.9;;;;;;;4.1;82.5;97510.0;;;;
2020/12/28 01:41:40;;;;;;;5.3;4.9;;;;;;;4.1;82.5;97510.0;;;;
2020/12/28 01:43:23;;;;;;;5.3;4.9;;;;;;;4.2;82.6;97510.0;;;;
2020/12/28 10:25:02;;;;;;;5.0;4.6;;;;;;;3.5;81.0;97630.0;;;;
2020/12/28 10:26:04;;;;;;;5.0;4.6;;;;;;;3.6;81.3;97630.0;;;;
2020/12/28 10:27:02;;;;;;;5.0;4.6;;;;;;;3.5;80.6;97630.0;;;;
2020/12/28 10:36:03;;;;;;;5.0;4.6;;;;;;;3.6;80.8;97620.0;;;;
2020/12/28 10:38:02;;;;;;;5.0;4.6;;;;;;;3.5;80.7;97620.0;;;;
2020/12/28 10:39:04;;;;;;;5.0;4.6;;;;;;;3.6;81.0;97620.0;;;;
2020/12/28 10:43:02;;;;;;;5.0;4.6;;;;;;;3.7;80.6;97620.0;;;;
2020/12/28 10:44:02;;;;;;;5.0;4.6;;;;;;;3.6;80.9;97620.0;;;;
2020/12/28 10:45:03;;;;;;;5.0;4.6;;;;;;;3.7;80.2;97620.0;;;;
2020/12/28 10:46:05;;;;;;;9.8;6.1;;;;;;;3.6;80.4;97620.0;;;;
2020/12/28 10:48:02;;;;;;;9.8;6.1;;;;;;;3.5;80.3;97620.0;;;;
2020/12/28 10:49:02;;;;;;;9.8;6.1;;;;;;;3.4;80.8;97610.0;;;;
2020/12/28 10:51:03;;;;;;;9.8;6.1;;;;;;;3.5;81.2;97620.0;;;;
2020/12/28 10:57:02;;;;;;;9.8;6.1;;;;;;;3.6;80.7;97610.0;;;;
2020/12/28 10:58:02;;;;;;;9.8;6.1;;;;;;;3.5;80.4;97610.0;;;;
2020/12/28 11:00:03;;;;;;;9.8;6.1;;;;;;;3.6;80.9;97610.0;;;;
2020/12/28 11:01:05;;;;;;;9.8;6.1;;;;;;;3.5;80.8;97610.0;;;;
2020/12/28 11:02:02;;;;;;;9.8;6.1;;;;;;;3.7;80.7;97620.0;;;;
2020/12/28 11:03:02;;;;;;;9.8;6.1;;;;;;;3.6;80.8;97620.0;;;;
2020/12/28 11:04:02;;;;;;;9.8;6.1;;;;;;;3.7;80.5;97620.0;;;;
2020/12/28 11:05:03;;;;;;;9.8;6.1;;;;;;;3.6;80.8;97620.0;;;;
2020/12/28 11:07:03;;;;;;;9.8;6.1;;;;;;;3.7;80.9;97630.0;;;;
2020/12/28 11:08:02;;;;;;;9.8;6.1;;;;;;;3.6;80.5;97630.0;;;;
2020/12/28 11:09:02;;;;;;;9.8;6.1;;;;;;;3.5;80.5;97630.0;;;;
2020/12/28 11:10:03;;;;;;;9.8;6.1;;;;;;;3.7;80.7;97630.0;;;;
2020/12/28 11:11:02;;;;;;;9.8;6.1;;;;;;;3.6;80.0;97630.0;;;;
2020/12/28 11:12:02;;;;;;;9.8;6.1;;;;;;;3.5;80.3;97630.0;;;;
2020/12/28 11:14:02;;;;;;;9.8;6.1;;;;;;;3.6;80.9;97630.0;;;;
2020/12/28 11:18:04;;;;;;;5.9;5.0;;;;;;;3.5;79.9;97630.0;;;;
2020/12/28 11:19:02;;;;;;;5.9;5.0;;;;;;;3.4;80.6;97630.0;;;;
2020/12/28 11:21:03;;;;;;;5.9;5.0;;;;;;;3.5;81.1;97630.0;;;;
2020/12/28 11:23:03;;;;;;;5.9;5.0;;;;;;;3.6;80.6;97630.0;;;;
2020/12/28 11:25:03;;;;;;;5.9;5.0;;;;;;;3.5;80.2;97630.0;;;;
2020/12/28 11:26:03;;;;;;;5.9;5.0;;;;;;;3.6;80.4;97620.0;;;;
2020/12/28 11:28:02;;;;;;;5.9;5.0;;;;;;;3.7;80.4;97620.0;;;;
2020/12/28 11:31:03;;;;;;;5.9;5.0;;;;;;;3.6;80.6;97610.0;;;;
2020/12/28 11:32:02;;;;;;;5.9;5.0;;;;;;;3.7;79.7;97620.0;;;;
2020/12/28 11:35:03;;;;;;;5.9;5.0;;;;;;;3.6;79.9;97620.0;;;;
2020/12/28 11:36:03;;;;;;;5.9;5.0;;;;;;;3.7;80.6;97620.0;;;;
2020/12/28 11:39:03;;;;;;;5.9;5.0;;;;;;;3.8;80.0;97610.0;;;;
2020/12/28 11:41:03;;;;;;;5.9;5.0;;;;;;;3.7;80.1;97600.0;;;;
2020/12/28 11:42:02;;;;;;;5.9;5.0;;;;;;;3.8;79.6;97600.0;;;;
2020/12/28 11:46:02;;;;;;;5.0;4.5;;;;;;;3.7;79.7;97600.0;;;;
2020/12/28 11:49:03;;;;;;;5.0;4.5;;;;;;;3.6;79.8;97600.0;;;;
2020/12/28 11:50:04;;;;;;;5.0;4.5;;;;;;;3.7;79.9;97600.0;;;;
2020/12/28 11:53:02;;;;;;;5.0;4.5;;;;;;;3.8;80.3;97600.0;;;;
2020/12/28 11:55:02;;;;;;;5.0;4.5;;;;;;;3.6;79.4;97600.0;;;;
2020/12/28 11:57:02;;;;;;;5.0;4.5;;;;;;;3.7;80.0;97590.0;;;;
2020/12/28 11:59:03;;;;;;;5.0;4.5;;;;;;;3.6;79.7;97590.0;;;;
2020/12/28 12:04:02;;;;;;;5.0;4.5;;;;;;;3.7;79.6;97590.0;;;;
2020/12/28 12:06:02;;;;;;;5.0;4.5;;;;;;;3.8;79.6;97580.0;;;;
2020/12/28 12:08:04;;;;;;;5.0;4.5;;;;;;;3.9;79.8;97580.0;;;;
2020/12/28 12:10:02;;;;;;;5.0;4.5;;;;;;;4.0;79.4;97580.0;;;;
2020/12/28 12:12:02;;;;;;;5.0;4.5;;;;;;;3.9;79.7;97580.0;;;;
2020/12/28 12:13:03;;;;;;;5.0;4.5;;;;;;;4.0;79.2;97580.0;;;;
2020/12/28 12:14:04;;;;;;;5.0;4.5;;;;;;;4.1;79.7;97580.0;;;;
2020/12/28 12:17:03;;;;;;;5.6;4.4;;;;;;;4.0;78.8;97580.0;;;;
2020/12/28 12:18:02;;;;;;;5.6;4.4;;;;;;;4.1;79.7;97580.0;;;;
2020/12/28 12:20:02;;;;;;;5.6;4.4;;;;;;;4.2;79.2;97580.0;;;;
2020/12/28 12:21:03;;;;;;;5.6;4.4;;;;;;;4.1;79.1;97590.0;;;;
2020/12/28 12:22:03;;;;;;;5.6;4.4;;;;;;;4.2;79.0;97580.0;;;;
2020/12/28 12:23:03;;;;;;;5.6;4.4;;;;;;;4.1;79.5;97590.0;;;;
2020/12/28 12:24:03;;;;;;;5.6;4.4;;;;;;;4.3;79.2;97590.0;;;;
2020/12/28 12:25:03;;;;;;;5.6;4.4;;;;;;;4.1;78.6;97590.0;;;;
2020/12/28 12:28:03;;;;;;;5.6;4.4;;;;;;;4.2;79.1;97600.0;;;;
2020/12/28 12:29:03;;;;;;;5.6;4.4;;;;;;;4.3;79.3;97600.0;;;;
2020/12/28 12:32:02;;;;;;;5.6;4.4;;;;;;;4.4;78.6;97600.0;;;;
2020/12/28 12:34:02;;;;;;;5.6;4.4;;;;;;;4.5;78.2;97610.0;;;;
2020/12/28 12:38:02;;;;;;;5.6;4.4;;;;;;;4.6;78.7;97610.0;;;;
2020/12/28 12:39:02;;;;;;;5.6;4.4;;;;;;;4.5;78.1;97610.0;;;;
2020/12/28 12:41:03;;;;;;;5.6;4.4;;;;;;;4.6;78.9;97610.0;;;;
2020/12/28 12:42:03;;;;;;;5.6;4.4;;;;;;;4.5;78.1;97610.0;;;;
2020/12/28 12:43:02;;;;;;;5.6;4.4;;;;;;;4.6;78.3;97610.0;;;;
2020/12/28 12:46:04;;;;;;;7.2;4.5;;;;;;;4.7;77.6;97620.0;;;;
2020/12/28 12:47:04;;;;;;;7.2;4.5;;;;;;;4.6;77.3;97620.0;;;;
2020/12/28 12:48:02;;;;;;;7.2;4.5;;;;;;;4.7;77.3;97620.0;;;;
2020/12/28 12:49:04;;;;;;;7.2;4.5;;;;;;;4.6;76.6;97620.0;;;;
2020/12/28 12:50:04;;;;;;;7.2;4.5;;;;;;;4.4;76.8;97620.0;;;;
2020/12/28 12:52:10;;;;;;;7.2;4.5;;;;;;;4.5;77.7;97630.0;;;;
2020/12/28 12:53:04;;;;;;;7.2;4.5;;;;;;;4.6;78.2;97620.0;;;;
2020/12/28 12:55:04;;;;;;;7.2;4.5;;;;;;;4.5;77.1;97610.0;;;;
2020/12/28 12:56:06;;;;;;;7.2;4.5;;;;;;;4.6;77.8;97610.0;;;;
2020/12/28 12:57:04;;;;;;;7.2;4.5;;;;;;;4.4;77.1;97610.0;;;;
2020/12/28 12:58:02;;;;;;;7.2;4.5;;;;;;;4.3;77.6;97620.0;;;;
2020/12/28 12:59:02;;;;;;;7.2;4.5;;;;;;;4.4;77.9;97620.0;;;;
2020/12/28 13:01:05;;;;;;;7.2;4.5;;;;;;;4.6;78.7;97610.0;;;;
2020/12/28 13:03:05;;;;;;;7.2;4.5;;;;;;;4.7;78.2;97620.0;;;;
2020/12/28 13:05:06;;;;;;;7.2;4.5;;;;;;;4.8;76.8;97610.0;;;;
2020/12/28 13:07:04;;;;;;;7.2;4.5;;;;;;;4.7;76.9;97610.0;;;;
2020/12/28 13:08:04;;;;;;;7.2;4.5;;;;;;;4.6;77.2;97610.0;;;;
2020/12/28 13:09:05;;;;;;;7.2;4.5;;;;;;;4.8;77.6;97600.0;;;;
2020/12/28 13:11:06;;;;;;;7.2;4.5;;;;;;;4.5;77.3;97600.0;;;;
2020/12/28 13:13:03;;;;;;;7.2;4.5;;;;;;;4.6;77.5;97600.0;;;;
2020/12/28 13:16:05;;;;;;;4.4;3.8;;;;;;;4.7;77.2;97600.0;;;;
2020/12/28 13:17:04;;;;;;;4.4;3.8;;;;;;;4.6;77.1;97600.0;;;;
2020/12/28 13:21:03;;;;;;;4.4;3.8;;;;;;;4.7;78.2;97600.0;;;;
2020/12/28 13:23:02;;;;;;;4.4;3.8;;;;;;;4.6;77.9;97600.0;;;;
2020/12/28 13:26:04;;;;;;;4.4;3.8;;;;;;;4.7;77.4;97600.0;;;;
2020/12/28 13:27:05;;;;;;;4.4;3.8;;;;;;;4.6;77.0;97600.0;;;;
2020/12/28 13:29:02;;;;;;;4.4;3.8;;;;;;;4.5;76.5;97590.0;;;;
2020/12/28 13:30:05;;;;;;;4.4;3.8;;;;;;;4.4;77.3;97590.0;;;;
2020/12/28 13:31:49;;;;;;;unknown;unknown;;;;;;;4.5;77.7;97590.0;;;;
2020/12/28 13:33:08;;;;;;;unknown;unknown;;;;;;;4.6;77.6;97580.0;;;;
2020/12/28 13:34:10;;;;;;;unknown;unknown;;;;;;;4.7;77.5;97580.0;;;;
2020/12/28 13:37:10;;;;;;;unknown;unknown;;;;;;;4.4;76.5;97590.0;;;;
2020/12/28 13:38:10;;;;;;;unknown;unknown;;;;;;;4.5;76.6;97590.0;;;;
2020/12/28 13:39:11;;;;;;;unknown;unknown;;;;;;;4.6;77.2;97590.0;;;;
2020/12/28 13:40:10;;;;;;;unknown;unknown;;;;;;;4.5;76.6;97590.0;;;;
2020/12/28 13:42:11;;;;;;;unknown;unknown;;;;;;;4.4;76.4;97590.0;;;;
2020/12/28 13:43:10;;;;;;;unknown;unknown;;;;;;;4.5;76.7;97580.0;;;;
2020/12/28 13:44:08;;;;;;;unknown;unknown;;;;;;;4.6;77.0;97590.0;;;;
2020/12/28 13:47:11;;;;;;;4.4;3.8;;;;;;;4.5;76.8;97580.0;;;;
2020/12/28 13:48:10;;;;;;;4.4;3.8;;;;;;;4.6;77.1;97590.0;;;;
2020/12/28 13:49:10;;;;;;;4.4;3.8;;;;;;;4.7;75.9;97580.0;;;;
2020/12/28 13:50:08;;;;;;;4.4;3.8;;;;;;;4.4;76.1;97590.0;;;;
2020/12/28 13:51:10;;;;;;;4.4;3.8;;;;;;;4.3;77.1;97580.0;;;;
2020/12/28 13:53:10;;;;;;;4.4;3.8;;;;;;;4.5;76.3;97580.0;;;;
2020/12/28 13:54:11;;;;;;;4.4;3.8;;;;;;;4.3;76.0;97580.0;;;;
2020/12/28 13:55:08;;;;;;;4.4;3.8;;;;;;;4.4;77.2;97590.0;;;;
2020/12/28 13:57:10;;;;;;;4.4;3.8;;;;;;;4.3;75.8;97580.0;;;;
2020/12/28 13:58:10;;;;;;;4.4;3.8;;;;;;;4.4;76.8;97590.0;;;;
2020/12/28 14:01:11;;;;;;;4.4;3.8;;;;;;;4.5;76.4;97580.0;;;;
2020/12/28 14:02:11;;;;;;;4.4;3.8;;;;;;;4.4;75.8;97580.0;;;;
2020/12/28 14:03:10;;;;;;;4.4;3.8;;;;;;;4.3;76.2;97590.0;;;;
2020/12/28 14:04:11;;;;;;;4.4;3.8;;;;;;;4.2;76.0;97590.0;;;;
2020/12/28 14:12:08;;;;;;;4.4;3.8;;;;;;;4.3;77.0;97590.0;;;;
2020/12/28 14:19:08;;;;;;;4.8;4.3;;;;;;;4.2;76.7;97600.0;;;;
2020/12/28 14:21:11;;;;;;;4.8;4.3;;;;;;;4.3;76.6;97600.0;;;;
2020/12/28 14:22:10;;;;;;;4.8;4.3;;;;;;;4.4;77.4;97590.0;;;;
2020/12/28 14:24:10;;;;;;;4.8;4.3;;;;;;;4.2;76.4;97600.0;;;;
2020/12/28 14:25:11;;;;;;;4.8;4.3;;;;;;;4.3;77.4;97610.0;;;;
2020/12/28 14:29:10;;;;;;;4.8;4.3;;;;;;;4.2;76.5;97610.0;;;;
2020/12/28 14:30:10;;;;;;;4.8;4.3;;;;;;;4.1;76.8;97610.0;;;;
2020/12/28 14:31:11;;;;;;;4.8;4.3;;;;;;;4.2;76.8;97610.0;;;;
2020/12/28 14:32:10;;;;;;;4.8;4.3;;;;;;;4.3;76.6;97610.0;;;;
2020/12/28 14:34:10;;;;;;;4.8;4.3;;;;;;;4.2;76.8;97610.0;;;;
2020/12/28 14:35:11;;;;;;;4.8;4.3;;;;;;;4.3;77.0;97610.0;;;;
2020/12/28 14:37:10;;;;;;;4.8;4.3;;;;;;;4.2;76.5;97610.0;;;;
2020/12/28 14:40:10;;;;;;;4.8;4.3;;;;;;;4.4;77.3;97620.0;;;;
2020/12/28 14:42:10;;;;;;;4.8;4.3;;;;;;;4.3;76.6;97620.0;;;;
2020/12/28 14:45:10;;;;;;;4.8;4.4;;;;;;;4.2;76.8;97620.0;;;;
2020/12/28 14:46:08;;;;;;;4.8;4.4;;;;;;;4.3;77.1;97620.0;;;;
2020/12/28 14:47:08;;;;;;;4.8;4.4;;;;;;;4.4;77.1;97620.0;;;;
2020/12/28 14:48:08;;;;;;;4.8;4.4;;;;;;;4.3;76.8;97620.0;;;;
2020/12/28 14:51:08;;;;;;;4.8;4.4;;;;;;;4.4;77.4;97620.0;;;;
2020/12/28 14:54:08;;;;;;;4.8;4.4;;;;;;;4.5;77.1;97620.0;;;;
2020/12/28 14:57:08;;;;;;;4.8;4.4;;;;;;;4.6;77.2;97610.0;;;;
2020/12/28 14:58:08;;;;;;;4.8;4.4;;;;;;;4.5;76.7;97610.0;;;;
2020/12/28 15:05:08;;;;;;;4.8;4.4;;;;;;;4.6;76.7;97610.0;;;;
2020/12/28 15:07:09;;;;;;;4.8;4.4;;;;;;;4.5;75.7;97610.0;;;;
2020/12/28 15:10:08;;;;;;;4.8;4.4;;;;;;;4.4;76.9;97610.0;;;;
2020/12/28 15:11:08;;;;;;;4.8;4.4;;;;;;;4.5;76.7;97610.0;;;;
2020/12/28 15:13:08;;;;;;;4.8;4.4;;;;;;;4.6;75.7;97610.0;;;;
2020/12/28 15:15:08;;;;;;;5.7;5.2;;;;;;;4.5;76.2;97610.0;;;;
2020/12/28 15:19:08;;;;;;;5.7;5.2;;;;;;;4.6;76.4;97610.0;;;;
2020/12/28 15:20:08;;;;;;;5.7;5.2;;;;;;;4.5;76.5;97610.0;;;;
2020/12/28 15:23:08;;;;;;;5.7;5.2;;;;;;;4.6;76.6;97610.0;;;;
2020/12/28 15:24:08;;;;;;;5.7;5.2;;;;;;;4.5;76.4;97610.0;;;;
2020/12/28 15:26:08;;;;;;;5.7;5.2;;;;;;;4.4;76.5;97610.0;;;;
2020/12/28 15:31:08;;;;;;;5.7;5.2;;;;;;;4.5;76.9;97610.0;;;;
2020/12/28 15:32:08;;;;;;;5.7;5.2;;;;;;;4.6;76.8;97600.0;;;;
2020/12/28 15:33:08;;;;;;;5.7;5.2;;;;;;;4.5;76.7;97600.0;;;;
2020/12/28 15:34:08;;;;;;;5.7;5.2;;;;;;;4.4;76.3;97610.0;;;;
2020/12/28 15:35:08;;;;;;;5.7;5.2;;;;;;;4.3;76.7;97610.0;;;;
2020/12/28 15:36:08;;;;;;;5.7;5.2;;;;;;;4.4;77.4;97610.0;;;;
2020/12/28 15:37:08;;;;;;;5.7;5.2;;;;;;;4.3;76.9;97610.0;;;;
2020/12/28 15:38:08;;;;;;;5.7;5.2;;;;;;;4.4;76.9;97610.0;;;;
2020/12/28 15:41:08;;;;;;;5.7;5.2;;;;;;;4.3;76.7;97610.0;;;;
2020/12/28 15:42:08;;;;;;;5.7;5.2;;;;;;;4.4;76.9;97610.0;;;;
2020/12/28 15:43:08;;;;;;;5.7;5.2;;;;;;;4.3;76.9;97610.0;;;;
2020/12/28 15:44:08;;;;;;;5.7;5.2;;;;;;;4.4;77.0;97610.0;;;;
2020/12/28 15:45:08;;;;;;;6.1;4.5;;;;;;;4.3;76.9;97610.0;;;;
2020/12/28 15:46:08;;;;;;;6.1;4.5;;;;;;;4.2;77.4;97610.0;;;;
2020/12/28 15:47:08;;;;;;;6.1;4.5;;;;;;;4.3;77.5;97610.0;;;;
2020/12/28 15:51:08;;;;;;;6.1;4.5;;;;;;;4.4;77.5;97610.0;;;;
2020/12/28 15:52:08;;;;;;;6.1;4.5;;;;;;;4.3;77.4;97610.0;;;;
2020/12/28 15:53:08;;;;;;;6.1;4.5;;;;;;;4.4;77.5;97610.0;;;;
2020/12/28 15:57:08;;;;;;;6.1;4.5;;;;;;;4.5;77.8;97610.0;;;;
2020/12/28 15:58:08;;;;;;;6.1;4.5;;;;;;;4.4;77.5;97610.0;;;;
2020/12/28 15:59:08;;;;;;;6.1;4.5;;;;;;;4.3;77.5;97620.0;;;;
2020/12/28 16:00:08;;;;;;;6.1;4.5;;;;;;;4.4;77.5;97610.0;;;;
2020/12/28 16:05:08;;;;;;;6.1;4.5;;;;;;;4.5;77.9;97610.0;;;;
2020/12/28 16:10:08;;;;;;;6.1;4.5;;;;;;;4.6;77.8;97610.0;;;;
2020/12/28 16:13:09;;;;;;;6.1;4.5;;;;;;;4.4;77.7;97610.0;;;;
2020/12/28 16:15:08;;;;;;;6.2;5.0;;;;;;;4.5;77.6;97610.0;;;;
2020/12/28 16:18:08;;;;;;;6.2;5.0;;;;;;;4.4;78.0;97610.0;;;;
2020/12/28 16:20:08;;;;;;;6.2;5.0;;;;;;;4.5;78.2;97600.0;;;;
2020/12/28 16:21:08;;;;;;;6.2;5.0;;;;;;;4.4;78.0;97610.0;;;;
2020/12/28 16:22:08;;;;;;;6.2;5.0;;;;;;;4.5;78.2;97600.0;;;;
2020/12/28 16:31:11;;;;;;;6.2;5.0;;;;;;;4.7;78.5;97600.0;;;;
2020/12/28 16:32:08;;;;;;;6.2;5.0;;;;;;;4.6;77.9;97600.0;;;;
2020/12/28 16:33:08;;;;;;;6.2;5.0;;;;;;;4.5;77.9;97600.0;;;;
2020/12/28 16:35:08;;;;;;;6.2;5.0;;;;;;;4.6;78.6;97600.0;;;;
2020/12/28 16:37:08;;;;;;;6.2;5.0;;;;;;;4.5;78.8;97600.0;;;;
2020/12/28 16:39:09;;;;;;;6.2;5.0;;;;;;;4.6;78.4;97600.0;;;;
2020/12/28 16:41:08;;;;;;;6.2;5.0;;;;;;;4.5;78.3;97600.0;;;;
2020/12/28 16:42:09;;;;;;;6.2;5.0;;;;;;;4.6;78.5;97600.0;;;;
2020/12/28 16:44:08;;;;;;;6.2;5.0;;;;;;;4.7;78.8;97600.0;;;;
2020/12/28 16:50:08;;;;;;;5.1;4.7;;;;;;;4.8;78.3;97600.0;;;;
2020/12/28 16:51:08;;;;;;;5.1;4.7;;;;;;;4.7;77.8;97600.0;;;;
2020/12/28 16:52:08;;;;;;;5.1;4.7;;;;;;;4.6;77.8;97610.0;;;;
2020/12/28 16:53:08;;;;;;;5.1;4.7;;;;;;;4.7;77.5;97600.0;;;;
2020/12/28 16:55:08;;;;;;;5.1;4.7;;;;;;;4.6;78.3;97610.0;;;;
2020/12/28 16:58:08;;;;;;;5.1;4.7;;;;;;;4.7;78.5;97600.0;;;;
2020/12/28 17:01:08;;;;;;;5.1;4.7;;;;;;;4.6;77.6;97600.0;;;;
2020/12/28 17:03:08;;;;;;;5.1;4.7;;;;;;;4.5;78.1;97600.0;;;;
2020/12/28 17:04:08;;;;;;;5.1;4.7;;;;;;;4.6;78.4;97610.0;;;;
2020/12/28 17:06:08;;;;;;;5.1;4.7;;;;;;;4.5;78.1;97600.0;;;;
2020/12/28 17:09:08;;;;;;;5.1;4.7;;;;;;;4.4;78.4;97610.0;;;;
2020/12/28 17:11:08;;;;;;;5.1;4.7;;;;;;;4.3;78.6;97610.0;;;;
2020/12/28 17:12:09;;;;;;;5.1;4.7;;;;;;;4.4;78.7;97610.0;;;;
2020/12/28 17:13:08;;;;;;;5.1;4.7;;;;;;;4.5;79.2;97610.0;;;;
2020/12/28 17:14:08;;;;;;;13.1;11.8;;;;;;;4.6;78.6;97610.0;;;;
2020/12/28 17:16:08;;;;;;;13.1;11.8;;;;;;;4.5;77.9;97600.0;;;;
2020/12/28 17:17:08;;;;;;;13.1;11.8;;;;;;;4.4;78.2;97610.0;;;;
2020/12/28 17:18:08;;;;;;;13.1;11.8;;;;;;;4.3;78.3;97610.0;;;;
2020/12/28 17:19:08;;;;;;;13.1;11.8;;;;;;;4.5;78.9;97610.0;;;;
2020/12/28 17:20:08;;;;;;;13.1;11.8;;;;;;;4.6;78.1;97610.0;;;;
2020/12/28 17:22:08;;;;;;;13.1;11.8;;;;;;;4.5;78.4;97610.0;;;;
2020/12/28 17:24:08;;;;;;;13.1;11.8;;;;;;;4.4;78.2;97610.0;;;;
2020/12/28 17:27:10;;;;;;;13.1;11.8;;;;;;;4.5;78.5;97610.0;;;;
2020/12/28 17:29:08;;;;;;;13.1;11.8;;;;;;;4.6;78.6;97610.0;;;;
2020/12/28 17:30:08;;;;;;;13.1;11.8;;;;;;;4.5;78.4;97610.0;;;;
2020/12/28 17:31:10;;;;;;;13.1;11.8;;;;;;;4.4;78.4;97620.0;;;;
2020/12/28 17:32:08;;;;;;;13.1;11.8;;;;;;;4.5;78.4;97620.0;;;;
2020/12/28 17:34:08;;;;;;;13.1;11.8;;;;;;;4.4;78.5;97620.0;;;;
2020/12/28 17:37:08;;;;;;;13.1;11.8;;;;;;;4.3;78.5;97620.0;;;;
2020/12/28 17:38:08;;;;;;;13.1;11.8;;;;;;;4.5;78.8;97620.0;;;;
2020/12/28 17:40:08;;;;;;;13.1;11.8;;;;;;;4.3;78.9;97630.0;;;;
2020/12/28 17:41:09;;;;;;;13.1;11.8;;;;;;;4.4;79.2;97620.0;;;;
2020/12/28 17:42:09;;;;;;;13.1;11.8;;;;;;;4.5;79.2;97630.0;;;;
2020/12/28 17:43:08;;;;;;;13.1;11.8;;;;;;;4.6;78.8;97630.0;;;;
2020/12/28 17:44:08;;;;;;;6.7;6.1;;;;;;;4.5;78.7;97630.0;;;;
2020/12/28 17:45:08;;;;;;;6.7;6.1;;;;;;;4.6;78.6;97630.0;;;;
2020/12/28 17:47:08;;;;;;;6.7;6.1;;;;;;;4.5;78.7;97630.0;;;;
2020/12/28 17:49:08;;;;;;;6.7;6.1;;;;;;;4.6;79.2;97620.0;;;;
2020/12/28 17:51:08;;;;;;;6.7;6.1;;;;;;;4.5;79.0;97620.0;;;;
2020/12/28 17:53:08;;;;;;;6.7;6.1;;;;;;;4.3;79.5;97620.0;;;;
2020/12/28 17:54:08;;;;;;;6.7;6.1;;;;;;;4.4;79.6;97630.0;;;;
2020/12/28 17:55:08;;;;;;;6.7;6.1;;;;;;;4.3;79.8;97630.0;;;;
2020/12/28 17:58:08;;;;;;;6.7;6.1;;;;;;;4.5;79.5;97630.0;;;;
2020/12/28 17:59:08;;;;;;;6.7;6.1;;;;;;;4.4;79.8;97630.0;;;;
2020/12/28 18:00:08;;;;;;;6.7;6.1;;;;;;;4.5;80.0;97630.0;;;;
2020/12/28 18:01:08;;;;;;;6.7;6.1;;;;;;;4.4;79.9;97630.0;;;;
2020/12/28 18:02:08;;;;;;;6.7;6.1;;;;;;;4.5;79.9;97630.0;;;;
2020/12/28 18:06:08;;;;;;;6.7;6.1;;;;;;;4.6;79.7;97640.0;;;;
2020/12/28 18:07:08;;;;;;;6.7;6.1;;;;;;;4.5;79.7;97640.0;;;;
2020/12/28 18:10:08;;;;;;;6.7;6.1;;;;;;;4.6;79.6;97640.0;;;;
2020/12/28 18:12:08;;;;;;;6.7;6.1;;;;;;;4.5;79.5;97640.0;;;;
2020/12/28 18:13:08;;;;;;;6.7;6.1;;;;;;;4.4;79.8;97640.0;;;;
2020/12/28 18:14:08;;;;;;;7.7;6.9;;;;;;;4.7;79.6;97640.0;;;;
2020/12/28 18:15:08;;;;;;;7.7;6.9;;;;;;;4.6;79.8;97640.0;;;;
2020/12/28 18:16:08;;;;;;;7.7;6.9;;;;;;;4.5;79.9;97640.0;;;;
2020/12/28 18:17:08;;;;;;;7.7;6.9;;;;;;;4.6;79.6;97640.0;;;;
2020/12/28 18:18:08;;;;;;;7.7;6.9;;;;;;;4.5;79.7;97640.0;;;;
2020/12/28 18:22:08;;;;;;;7.7;6.9;;;;;;;4.4;80.3;97640.0;;;;
2020/12/28 18:25:08;;;;;;;7.7;6.9;;;;;;;4.3;80.9;97640.0;;;;
2020/12/28 18:26:09;;;;;;;7.7;6.9;;;;;;;4.4;80.8;97650.0;;;;
2020/12/28 18:28:08;;;;;;;7.7;6.9;;;;;;;4.3;80.9;97650.0;;;;
2020/12/28 18:31:10;;;;;;;7.7;6.9;;;;;;;4.4;80.9;97650.0;;;;
2020/12/28 18:33:08;;;;;;;7.7;6.9;;;;;;;4.3;81.0;97660.0;;;;
2020/12/28 18:35:08;;;;;;;7.7;6.9;;;;;;;4.4;81.0;97660.0;;;;
2020/12/28 18:37:08;;;;;;;7.7;6.9;;;;;;;4.3;80.9;97660.0;;;;
2020/12/28 18:39:08;;;;;;;7.7;6.9;;;;;;;4.4;81.1;97650.0;;;;
2020/12/28 18:40:08;;;;;;;7.7;6.9;;;;;;;4.3;81.2;97650.0;;;;
2020/12/28 18:42:08;;;;;;;7.7;6.9;;;;;;;4.4;80.8;97650.0;;;;
2020/12/28 18:43:08;;;;;;;7.7;6.9;;;;;;;4.3;81.0;97650.0;;;;
2020/12/28 18:49:08;;;;;;;16.5;14.8;;;;;;;4.4;81.2;97660.0;;;;
2020/12/28 18:51:11;;;;;;;16.5;14.8;;;;;;;4.2;81.5;97660.0;;;;
2020/12/28 18:54:15;;;;;;;16.5;14.8;;;;;;;4.3;81.4;97660.0;;;;
2020/12/28 18:55:08;;;;;;;16.5;14.8;;;;;;;4.2;81.8;97670.0;;;;
2020/12/28 18:57:08;;;;;;;16.5;14.8;;;;;;;4.1;81.9;97670.0;;;;
2020/12/28 19:00:08;;;;;;;16.5;14.8;;;;;;;4.2;81.9;97670.0;;;;
2020/12/28 19:02:09;;;;;;;16.5;14.8;;;;;;;4.3;81.5;97670.0;;;;
2020/12/28 19:04:08;;;;;;;16.5;14.8;;;;;;;4.2;81.7;97670.0;;;;
2020/12/28 19:05:08;;;;;;;16.5;14.8;;;;;;;4.3;81.7;97670.0;;;;
2020/12/28 19:11:11;;;;;;;16.5;14.8;;;;;;;4.4;81.1;97670.0;;;;
2020/12/28 19:12:08;;;;;;;16.5;14.8;;;;;;;4.3;81.5;97670.0;;;;
2020/12/28 19:13:08;;;;;;;16.5;14.8;;;;;;;4.4;81.4;97680.0;;;;
2020/12/28 19:16:08;;;;;;;12.7;11.4;;;;;;;4.3;81.3;97680.0;;;;
2020/12/28 19:18:08;;;;;;;12.7;11.4;;;;;;;4.4;81.8;97680.0;;;;
2020/12/28 19:27:08;;;;;;;12.7;11.4;;;;;;;4.5;80.9;97690.0;;;;
2020/12/28 19:28:08;;;;;;;12.7;11.4;;;;;;;4.3;81.4;97690.0;;;;
2020/12/28 19:29:08;;;;;;;12.7;11.4;;;;;;;4.2;81.8;97690.0;;;;
2020/12/28 19:30:08;;;;;;;12.7;11.4;;;;;;;4.4;81.5;97690.0;;;;
2020/12/28 19:33:08;;;;;;;12.7;11.4;;;;;;;4.3;81.6;97690.0;;;;
2020/12/28 19:35:08;;;;;;;12.7;11.4;;;;;;;4.4;81.6;97700.0;;;;
2020/12/28 19:36:09;;;;;;;12.7;11.4;;;;;;;4.5;81.3;97700.0;;;;
2020/12/28 19:37:08;;;;;;;12.7;11.4;;;;;;;4.4;81.4;97700.0;;;;
2020/12/28 19:38:08;;;;;;;12.7;11.4;;;;;;;4.5;81.5;97700.0;;;;
2020/12/28 19:39:08;;;;;;;12.7;11.4;;;;;;;4.4;81.2;97710.0;;;;
2020/12/28 19:42:08;;;;;;;12.7;11.4;;;;;;;4.3;81.9;97710.0;;;;
2020/12/28 19:44:09;;;;;;;13.7;12.3;;;;;;;4.4;81.5;97710.0;;;;
2020/12/28 19:48:08;;;;;;;13.7;12.3;;;;;;;4.3;81.3;97710.0;;;;
2020/12/28 19:50:08;;;;;;;13.7;12.3;;;;;;;4.4;81.6;97710.0;;;;
2020/12/28 19:51:08;;;;;;;13.7;12.3;;;;;;;4.3;81.8;97710.0;;;;
2020/12/28 19:54:08;;;;;;;13.7;12.3;;;;;;;4.2;82.2;97720.0;;;;
2020/12/28 19:55:08;;;;;;;13.7;12.3;;;;;;;4.3;82.2;97720.0;;;;
2020/12/28 19:59:10;;;;;;;13.7;12.3;;;;;;;4.4;81.7;97720.0;;;;
2020/12/28 20:00:08;;;;;;;13.7;12.3;;;;;;;4.3;81.7;97720.0;;;;
2020/12/28 20:01:08;;;;;;;13.7;12.3;;;;;;;4.4;81.3;97720.0;;;;
2020/12/28 20:04:08;;;;;;;13.7;12.3;;;;;;;4.3;81.2;97720.0;;;;
2020/12/28 20:07:08;;;;;;;13.7;12.3;;;;;;;4.2;82.1;97710.0;;;;
2020/12/28 20:08:08;;;;;;;13.7;12.3;;;;;;;4.3;81.8;97720.0;;;;
2020/12/28 20:10:08;;;;;;;13.7;12.3;;;;;;;4.2;82.1;97720.0;;;;
2020/12/28 20:11:08;;;;;;;13.7;12.3;;;;;;;4.3;81.9;97720.0;;;;
2020/12/28 20:13:08;;;;;;;13.7;12.3;;;;;;;4.2;81.6;97710.0;;;;
2020/12/28 20:14:08;;;;;;;14.0;12.7;;;;;;;4.3;81.4;97710.0;;;;
2020/12/28 20:15:08;;;;;;;14.0;12.7;;;;;;;4.2;81.8;97710.0;;;;
2020/12/28 20:18:08;;;;;;;14.0;12.7;;;;;;;4.3;81.3;97710.0;;;;
2020/12/28 20:23:08;;;;;;;14.0;12.7;;;;;;;4.2;81.5;97710.0;;;;
2020/12/28 20:25:08;;;;;;;14.0;12.7;;;;;;;4.3;81.2;97720.0;;;;
2020/12/28 20:26:09;;;;;;;14.0;12.7;;;;;;;4.2;81.6;97720.0;;;;
2020/12/28 20:28:08;;;;;;;14.0;12.7;;;;;;;4.3;81.2;97720.0;;;;
2020/12/28 20:29:08;;;;;;;14.0;12.7;;;;;;;4.2;81.1;97730.0;;;;
2020/12/28 20:33:08;;;;;;;14.0;12.7;;;;;;;4.1;81.3;97730.0;;;;
2020/12/28 20:34:08;;;;;;;14.0;12.7;;;;;;;4.2;81.2;97730.0;;;;
2020/12/28 20:35:08;;;;;;;14.0;12.7;;;;;;;4.1;81.2;97730.0;;;;
2020/12/28 20:39:09;;;;;;;14.0;12.7;;;;;;;4.2;81.2;97730.0;;;;
2020/12/28 20:40:11;;;;;;;14.0;12.7;;;;;;;4.3;80.3;97730.0;;;;
2020/12/28 20:41:08;;;;;;;14.0;12.7;;;;;;;4.2;80.6;97730.0;;;;
2020/12/28 20:43:10;;;;;;;10.7;9.8;;;;;;;4.1;81.2;97730.0;;;;
2020/12/28 20:44:08;;;;;;;10.7;9.8;;;;;;;4.3;80.9;97730.0;;;;
2020/12/28 20:45:08;;;;;;;10.7;9.8;;;;;;;4.2;81.3;97730.0;;;;
2020/12/28 20:46:08;;;;;;;10.7;9.8;;;;;;;4.1;81.1;97740.0;;;;
2020/12/28 20:47:08;;;;;;;10.7;9.8;;;;;;;4.0;81.5;97730.0;;;;
2020/12/28 20:49:08;;;;;;;10.7;9.8;;;;;;;4.1;81.7;97740.0;;;;
2020/12/28 20:53:09;;;;;;;10.7;9.8;;;;;;;4.2;80.5;97750.0;;;;
2020/12/28 20:54:08;;;;;;;10.7;9.8;;;;;;;4.1;80.9;97750.0;;;;
2020/12/28 20:59:08;;;;;;;10.7;9.8;;;;;;;4.2;81.4;97750.0;;;;
2020/12/28 21:01:08;;;;;;;10.7;9.8;;;;;;;4.1;81.0;97750.0;;;;
2020/12/28 21:03:09;;;;;;;10.7;9.8;;;;;;;4.2;81.0;97750.0;;;;
2020/12/28 21:09:08;;;;;;;10.7;9.8;;;;;;;4.1;80.8;97750.0;;;;
2020/12/28 21:10:08;;;;;;;10.7;9.8;;;;;;;4.2;80.9;97750.0;;;;
2020/12/28 21:12:08;;;;;;;10.7;9.8;;;;;;;4.1;81.1;97750.0;;;;
2020/12/28 21:13:08;;;;;;;10.2;9.3;;;;;;;4.0;81.3;97750.0;;;;
2020/12/28 21:14:10;;;;;;;10.2;9.3;;;;;;;4.1;81.2;97750.0;;;;
2020/12/28 21:15:08;;;;;;;10.2;9.3;;;;;;;4.2;80.6;97750.0;;;;
2020/12/28 21:23:08;;;;;;;10.2;9.3;;;;;;;4.3;79.9;97750.0;;;;
2020/12/28 21:24:08;;;;;;;10.2;9.3;;;;;;;4.2;80.0;97750.0;;;;
2020/12/28 21:26:09;;;;;;;10.2;9.3;;;;;;;4.1;81.0;97750.0;;;;
2020/12/28 21:28:08;;;;;;;10.2;9.3;;;;;;;4.0;81.3;97750.0;;;;
2020/12/28 21:29:08;;;;;;;10.2;9.3;;;;;;;4.1;81.3;97750.0;;;;
2020/12/28 21:33:08;;;;;;;10.2;9.3;;;;;;;4.0;81.4;97760.0;;;;
2020/12/28 21:35:08;;;;;;;10.2;9.3;;;;;;;4.1;81.3;97750.0;;;;
2020/12/28 21:43:08;;;;;;;11.5;10.5;;;;;;;4.2;80.6;97750.0;;;;
2020/12/28 21:45:09;;;;;;;11.5;10.5;;;;;;;4.4;80.0;97750.0;;;;
2020/12/28 21:46:08;;;;;;;11.5;10.5;;;;;;;4.2;80.1;97740.0;;;;
2020/12/28 21:47:08;;;;;;;11.5;10.5;;;;;;;4.3;80.1;97750.0;;;;
2020/12/28 21:48:08;;;;;;;11.5;10.5;;;;;;;4.2;80.1;97740.0;;;;
2020/12/28 21:51:08;;;;;;;11.5;10.5;;;;;;;4.3;80.3;97750.0;;;;
2020/12/28 21:52:08;;;;;;;11.5;10.5;;;;;;;4.2;80.2;97750.0;;;;
2020/12/28 21:53:09;;;;;;;11.5;10.5;;;;;;;4.3;80.0;97750.0;;;;
2020/12/28 21:54:08;;;;;;;11.5;10.5;;;;;;;4.2;79.9;97740.0;;;;
2020/12/28 21:56:08;;;;;;;11.5;10.5;;;;;;;4.3;79.8;97750.0;;;;
2020/12/28 21:58:08;;;;;;;11.5;10.5;;;;;;;4.2;79.7;97750.0;;;;
2020/12/28 22:00:08;;;;;;;11.5;10.5;;;;;;;4.1;80.2;97740.0;;;;
2020/12/28 22:04:08;;;;;;;11.5;10.5;;;;;;;4.2;79.9;97750.0;;;;
2020/12/28 22:09:08;;;;;;;11.5;10.5;;;;;;;4.1;80.6;97750.0;;;;
2020/12/28 22:12:08;;;;;;;11.5;10.5;;;;;;;4.2;80.2;97760.0;;;;
2020/12/28 22:13:08;;;;;;;11.4;10.4;;;;;;;4.1;80.4;97760.0;;;;
2020/12/28 22:14:09;;;;;;;11.4;10.4;;;;;;;4.2;81.1;97760.0;;;;
2020/12/28 22:26:08;;;;;;;11.4;10.4;;;;;;;4.1;81.0;97770.0;;;;
2020/12/28 22:28:08;;;;;;;11.4;10.4;;;;;;;4.2;80.8;97760.0;;;;
2020/12/28 22:29:08;;;;;;;11.4;10.4;;;;;;;4.1;80.7;97770.0;;;;